<?xml version="1.0" encoding="UTF-8" standalone="no" ?>
<gpx xmlns="http://www.topografix.com/GPX/1/1" xmlns:xsi="http://www.w3.org/2001/XMLSchema-instance" xsi:schemaLocation="http://www.topografix.com/GPX/1/1 http://www.topografix.com/GPX/1/1/gpx.xsd" version="1.1" creator="VisuGPX - https://www.visugpx.com">
  <metadata>
    <name>Situation des sentiers PRx de la vallée du Cavu au 30/06/2026</name>
    <desc><![CDATA[Sentiers APB PRx au 30/06/2026]]></desc>
  </metadata>
  <trk>
    <name><![CDATA[PR1 - San Martinu]]></name>
    <desc><![CDATA[Boucle au départ de Funtanedda avec montée à l'église de San Martinu, piste de San Martinu jusqu'à l'entrée de la piste de Barola et retour par l'ancien chemin des photos aériennes 1950-1965]]></desc>
    <extensions>
      <line xmlns="http://www.topografix.com/GPX/gpx_style/0/2">
        <color>0000ff</color>
        <opacity>1</opacity>
        <width>4</width>
          <extensions>
            <sens>1</sens>
          </extensions>
      </line>
    </extensions>
    <trkseg>
      <trkpt lat="41.74083" lon="9.29718">
        <ele>198.7</ele>
        <time>2022-03-05T11:36:47Z</time>
      </trkpt>
      <trkpt lat="41.7408" lon="9.29724">
        <ele>201.1</ele>
        <time>2022-03-05T11:36:38Z</time>
      </trkpt>
      <trkpt lat="41.74075" lon="9.29733">
        <ele>204.5</ele>
        <time>2022-03-05T11:36:33Z</time>
      </trkpt>
      <trkpt lat="41.7407" lon="9.2975">
        <ele>206.7</ele>
        <time>2022-03-05T11:35:42Z</time>
      </trkpt>
      <trkpt lat="41.74069" lon="9.2977">
        <ele>208.8</ele>
      </trkpt>
      <trkpt lat="41.74063" lon="9.29784">
        <ele>211.4</ele>
        <time>2022-03-05T11:34:59Z</time>
      </trkpt>
      <trkpt lat="41.74063" lon="9.29797">
        <ele>211.1</ele>
        <time>2022-03-05T11:34:53Z</time>
      </trkpt>
      <trkpt lat="41.74063" lon="9.29818">
        <ele>212.3</ele>
        <time>2022-03-05T11:34:41Z</time>
      </trkpt>
      <trkpt lat="41.74064" lon="9.29833">
        <ele>213.8</ele>
      </trkpt>
      <trkpt lat="41.74067" lon="9.29844">
        <ele>215</ele>
        <time>2022-03-05T11:34:18Z</time>
      </trkpt>
      <trkpt lat="41.74069" lon="9.29854">
        <ele>216.4</ele>
      </trkpt>
      <trkpt lat="41.74072" lon="9.29867">
        <ele>217.2</ele>
        <time>2022-03-05T11:34:01Z</time>
      </trkpt>
      <trkpt lat="41.74073" lon="9.2988">
        <ele>218.1</ele>
        <time>2022-03-05T11:33:51Z</time>
      </trkpt>
      <trkpt lat="41.74075" lon="9.29896">
        <ele>219.2</ele>
      </trkpt>
      <trkpt lat="41.74076" lon="9.2991">
        <ele>221</ele>
        <time>2022-03-05T11:33:31Z</time>
      </trkpt>
      <trkpt lat="41.74082" lon="9.29931">
        <ele>222.9</ele>
      </trkpt>
      <trkpt lat="41.74084" lon="9.29944">
        <ele>224.8</ele>
        <time>2022-03-05T11:32:52Z</time>
      </trkpt>
      <trkpt lat="41.74079" lon="9.29952">
        <ele>227.8</ele>
        <time>2022-03-05T11:32:42Z</time>
      </trkpt>
      <trkpt lat="41.74079" lon="9.29984">
        <ele>232.1</ele>
        <time>2022-03-05T11:32:11Z</time>
      </trkpt>
      <trkpt lat="41.74086" lon="9.3">
        <ele>312</ele>
        <time>2022-03-05T11:31:42Z</time>
      </trkpt>
      <trkpt lat="41.74084" lon="9.30005">
        <ele>312</ele>
        <time>2022-03-05T11:31:36Z</time>
      </trkpt>
      <trkpt lat="41.74077" lon="9.30016">
        <ele>313</ele>
        <time>2022-03-05T11:31:28Z</time>
      </trkpt>
      <trkpt lat="41.74074" lon="9.3004">
        <ele>314</ele>
        <time>2022-03-05T11:31:20Z</time>
      </trkpt>
      <trkpt lat="41.74059" lon="9.30044">
        <ele>317</ele>
        <time>2022-03-05T11:30:25Z</time>
      </trkpt>
      <trkpt lat="41.74051" lon="9.3005">
        <ele>318</ele>
        <time>2022-03-05T11:29:53Z</time>
      </trkpt>
      <trkpt lat="41.74046" lon="9.30058">
        <ele>318</ele>
        <time>2022-03-05T11:29:50Z</time>
      </trkpt>
      <trkpt lat="41.74047" lon="9.3008">
        <ele>319</ele>
        <time>2022-03-05T11:29:27Z</time>
      </trkpt>
      <trkpt lat="41.74047" lon="9.30083">
        <ele>320</ele>
        <time>2022-03-05T11:28:56Z</time>
      </trkpt>
      <trkpt lat="41.74045" lon="9.30098">
        <ele>323</ele>
        <time>2022-03-05T11:27:44Z</time>
      </trkpt>
      <trkpt lat="41.74046" lon="9.30113">
        <ele>324</ele>
        <time>2022-03-05T11:27:26Z</time>
      </trkpt>
      <trkpt lat="41.74046" lon="9.30119">
        <ele>324</ele>
        <time>2022-03-05T11:27:17Z</time>
      </trkpt>
      <trkpt lat="41.74047" lon="9.30131">
        <ele>325</ele>
        <time>2022-03-05T11:27:06Z</time>
      </trkpt>
      <trkpt lat="41.7405" lon="9.30138">
        <ele>326</ele>
        <time>2022-03-05T11:26:34Z</time>
      </trkpt>
      <trkpt lat="41.74045" lon="9.3015">
        <ele>327</ele>
        <time>2022-03-05T11:26:15Z</time>
      </trkpt>
      <trkpt lat="41.7404" lon="9.30162">
        <ele>327</ele>
        <time>2022-03-05T11:25:52Z</time>
      </trkpt>
      <trkpt lat="41.74038" lon="9.30167">
        <ele>328</ele>
        <time>2022-03-05T11:25:48Z</time>
      </trkpt>
      <trkpt lat="41.74028" lon="9.30176">
        <ele>329</ele>
        <time>2022-03-05T11:24:57Z</time>
      </trkpt>
      <trkpt lat="41.74025" lon="9.30187">
        <ele>330</ele>
        <time>2022-03-05T11:24:51Z</time>
      </trkpt>
      <trkpt lat="41.74022" lon="9.30203">
        <ele>331</ele>
        <time>2022-03-05T11:24:14Z</time>
      </trkpt>
      <trkpt lat="41.74024" lon="9.30213">
        <ele>332</ele>
        <time>2022-03-05T11:23:43Z</time>
      </trkpt>
      <trkpt lat="41.74029" lon="9.30221">
        <ele>332</ele>
        <time>2022-03-05T11:23:34Z</time>
      </trkpt>
      <trkpt lat="41.74036" lon="9.3023">
        <ele>334</ele>
        <time>2022-03-05T11:22:47Z</time>
      </trkpt>
      <trkpt lat="41.7404" lon="9.30228">
        <ele>334</ele>
        <time>2022-03-05T11:22:16Z</time>
      </trkpt>
      <trkpt lat="41.74046" lon="9.30228">
        <ele>336</ele>
        <time>2022-03-05T11:21:02Z</time>
      </trkpt>
      <trkpt lat="41.74047" lon="9.30249">
        <ele>337</ele>
        <time>2022-03-05T11:20:35Z</time>
      </trkpt>
      <trkpt lat="41.74042" lon="9.30257">
        <ele>337</ele>
        <time>2022-03-05T11:20:13Z</time>
      </trkpt>
      <trkpt lat="41.74041" lon="9.30269">
        <ele>337</ele>
        <time>2022-03-05T11:20:05Z</time>
      </trkpt>
      <trkpt lat="41.74044" lon="9.30272">
        <ele>337</ele>
        <time>2022-03-05T11:19:53Z</time>
      </trkpt>
      <trkpt lat="41.74053" lon="9.30288">
        <ele>338</ele>
        <time>2022-03-05T11:19:27Z</time>
      </trkpt>
      <trkpt lat="41.7405" lon="9.30305">
        <ele>338</ele>
        <time>2022-03-05T11:19:04Z</time>
      </trkpt>
      <trkpt lat="41.74048" lon="9.30312">
        <ele>338</ele>
        <time>2022-03-05T11:18:59Z</time>
      </trkpt>
      <trkpt lat="41.74056" lon="9.30328">
        <ele>338</ele>
        <time>2022-03-05T11:18:20Z</time>
      </trkpt>
      <trkpt lat="41.74061" lon="9.30335">
        <ele>339</ele>
        <time>2022-03-05T11:18:10Z</time>
      </trkpt>
      <trkpt lat="41.74074" lon="9.30337">
        <ele>339</ele>
        <time>2022-03-05T11:17:56Z</time>
      </trkpt>
      <trkpt lat="41.74089" lon="9.30343">
        <ele>339</ele>
        <time>2022-03-05T11:17:36Z</time>
      </trkpt>
      <trkpt lat="41.74091" lon="9.30348">
        <ele>341</ele>
        <time>2022-03-05T11:15:33Z</time>
      </trkpt>
      <trkpt lat="41.74087" lon="9.30356">
        <ele>342</ele>
        <time>2022-03-05T11:12:48Z</time>
      </trkpt>
      <trkpt lat="41.74087" lon="9.30365">
        <ele>342</ele>
        <time>2022-03-05T11:12:27Z</time>
      </trkpt>
      <trkpt lat="41.74084" lon="9.30375">
        <ele>341</ele>
        <time>2022-03-05T11:12:10Z</time>
      </trkpt>
      <trkpt lat="41.74078" lon="9.30389">
        <ele>339</ele>
        <time>2022-03-05T11:11:52Z</time>
      </trkpt>
      <trkpt lat="41.74081" lon="9.30393">
        <ele>339</ele>
        <time>2022-03-05T11:11:47Z</time>
      </trkpt>
      <trkpt lat="41.74084" lon="9.30402">
        <ele>325.8</ele>
        <time>2022-03-05T11:11:19Z</time>
      </trkpt>
      <trkpt lat="41.74078" lon="9.30415">
        <ele>325</ele>
        <time>2022-03-05T11:10:49Z</time>
      </trkpt>
      <trkpt lat="41.74075" lon="9.30421">
        <ele>325</ele>
        <time>2022-03-05T11:10:44Z</time>
      </trkpt>
      <trkpt lat="41.74071" lon="9.30423">
        <ele>324</ele>
        <time>2022-03-05T11:10:29Z</time>
      </trkpt>
      <trkpt lat="41.74067" lon="9.30431">
        <ele>342</ele>
        <time>2022-03-27T09:43:38Z</time>
      </trkpt>
      <trkpt lat="41.74065" lon="9.30445">
        <ele>347</ele>
        <time>2022-03-27T09:44:02Z</time>
      </trkpt>
      <trkpt lat="41.74067" lon="9.30458">
        <ele>350</ele>
        <time>2022-03-27T09:44:25Z</time>
      </trkpt>
      <trkpt lat="41.74056" lon="9.30458">
        <ele>352</ele>
        <time>2022-03-27T09:44:40Z</time>
      </trkpt>
      <trkpt lat="41.74051" lon="9.30471">
        <ele>355</ele>
        <time>2022-03-27T09:45:02Z</time>
      </trkpt>
      <trkpt lat="41.7403" lon="9.30469">
        <ele>359</ele>
        <time>2022-03-27T09:45:40Z</time>
      </trkpt>
      <trkpt lat="41.74022" lon="9.30476">
        <ele>361</ele>
        <time>2022-03-27T09:45:50Z</time>
      </trkpt>
      <trkpt lat="41.74016" lon="9.30486">
        <ele>364</ele>
        <time>2022-03-27T09:46:06Z</time>
      </trkpt>
      <trkpt lat="41.74016" lon="9.30504">
        <ele>366</ele>
        <time>2022-03-27T09:46:24Z</time>
      </trkpt>
      <trkpt lat="41.74011" lon="9.30531">
        <ele>369</ele>
        <time>2022-03-27T09:46:51Z</time>
      </trkpt>
      <trkpt lat="41.74002" lon="9.3054">
        <ele>370</ele>
        <time>2022-03-27T09:47:00Z</time>
      </trkpt>
      <trkpt lat="41.74001" lon="9.30554">
        <ele>373</ele>
        <time>2022-03-27T09:47:19Z</time>
      </trkpt>
      <trkpt lat="41.73986" lon="9.30563">
        <ele>376</ele>
        <time>2022-03-27T09:47:40Z</time>
      </trkpt>
      <trkpt lat="41.73983" lon="9.30573">
        <ele>376</ele>
        <time>2022-03-27T09:47:50Z</time>
      </trkpt>
      <trkpt lat="41.7396" lon="9.30594">
        <ele>379</ele>
        <time>2022-03-27T09:48:18Z</time>
      </trkpt>
      <trkpt lat="41.73957" lon="9.30606">
        <ele>380</ele>
        <time>2022-03-27T09:48:28Z</time>
      </trkpt>
      <trkpt lat="41.73945" lon="9.30612">
        <ele>383</ele>
        <time>2022-03-27T09:48:43Z</time>
      </trkpt>
      <trkpt lat="41.73937" lon="9.30621">
        <ele>387</ele>
        <time>2022-03-27T09:49:09Z</time>
      </trkpt>
      <trkpt lat="41.7394" lon="9.30633">
        <ele>388</ele>
        <time>2022-03-27T09:49:17Z</time>
      </trkpt>
      <trkpt lat="41.7393" lon="9.30647">
        <ele>391</ele>
        <time>2022-03-27T09:49:43Z</time>
      </trkpt>
      <trkpt lat="41.73919" lon="9.30655">
        <ele>394</ele>
        <time>2022-03-27T09:50:04Z</time>
      </trkpt>
      <trkpt lat="41.73918" lon="9.30669">
        <ele>395</ele>
        <time>2022-03-27T09:50:38Z</time>
      </trkpt>
      <trkpt lat="41.73909" lon="9.30665">
        <ele>394</ele>
        <time>2022-03-27T09:50:51Z</time>
      </trkpt>
      <trkpt lat="41.73909" lon="9.30678">
        <ele>388.8</ele>
        <time>2022-03-27T09:52:07Z</time>
      </trkpt>
      <trkpt lat="41.7391" lon="9.3069">
        <ele>389.4</ele>
        <time>2022-03-27T09:56:15Z</time>
      </trkpt>
      <trkpt lat="41.7389" lon="9.3069">
        <ele>391.2</ele>
      </trkpt>
      <trkpt lat="41.73873" lon="9.30698">
        <ele>392.7</ele>
      </trkpt>
      <trkpt lat="41.73852" lon="9.30702">
        <ele>394.5</ele>
      </trkpt>
      <trkpt lat="41.7383" lon="9.30695">
        <ele>395.1</ele>
      </trkpt>
      <trkpt lat="41.73812" lon="9.3068">
        <ele>396.8</ele>
      </trkpt>
      <trkpt lat="41.73805" lon="9.30668">
        <ele>397.4</ele>
      </trkpt>
      <trkpt lat="41.73789" lon="9.30652">
        <ele>399</ele>
      </trkpt>
      <trkpt lat="41.73778" lon="9.30641">
        <ele>399.4</ele>
      </trkpt>
      <trkpt lat="41.73745" lon="9.30607">
        <ele>403.3</ele>
      </trkpt>
      <trkpt lat="41.73727" lon="9.30599">
        <ele>405.1</ele>
      </trkpt>
      <trkpt lat="41.7371" lon="9.30596">
        <ele>405.4</ele>
      </trkpt>
      <trkpt lat="41.73692" lon="9.306">
        <ele>406.5</ele>
      </trkpt>
      <trkpt lat="41.7368" lon="9.306">
        <ele>406.8</ele>
      </trkpt>
      <trkpt lat="41.73677" lon="9.30596">
        <ele>406.5</ele>
      </trkpt>
      <trkpt lat="41.73674" lon="9.30585">
        <ele>405.6</ele>
      </trkpt>
      <trkpt lat="41.73677" lon="9.30578">
        <ele>404.6</ele>
      </trkpt>
      <trkpt lat="41.73683" lon="9.30563">
        <ele>402.3</ele>
      </trkpt>
      <trkpt lat="41.73687" lon="9.30556">
        <ele>401.3</ele>
      </trkpt>
      <trkpt lat="41.73688" lon="9.30552">
        <ele>401</ele>
        <time>2024-02-20T14:41:23Z</time>
      </trkpt>
      <trkpt lat="41.73692" lon="9.30546">
        <ele>412</ele>
        <time>2024-02-20T14:41:34Z</time>
      </trkpt>
      <trkpt lat="41.73694" lon="9.30544">
        <ele>414</ele>
        <time>2024-02-20T14:41:54Z</time>
      </trkpt>
      <trkpt lat="41.73695" lon="9.3054">
        <ele>414</ele>
        <time>2024-02-20T14:42:02Z</time>
      </trkpt>
      <trkpt lat="41.73696" lon="9.30536">
        <ele>415</ele>
        <time>2024-02-20T14:42:06Z</time>
      </trkpt>
      <trkpt lat="41.73701" lon="9.30531">
        <ele>415</ele>
        <time>2024-02-20T14:42:12Z</time>
      </trkpt>
      <trkpt lat="41.73704" lon="9.30529">
        <ele>415</ele>
        <time>2024-02-20T14:42:21Z</time>
      </trkpt>
      <trkpt lat="41.73707" lon="9.30525">
        <ele>396.8</ele>
        <time>2024-02-20T14:42:35Z</time>
      </trkpt>
      <trkpt lat="41.73709" lon="9.30522">
        <ele>396.4</ele>
        <time>2024-02-20T14:42:55Z</time>
      </trkpt>
      <trkpt lat="41.73707" lon="9.30514">
        <ele>416</ele>
        <time>2024-02-20T14:43:12Z</time>
      </trkpt>
      <trkpt lat="41.73709" lon="9.30511">
        <ele>414</ele>
        <time>2024-02-20T14:45:40Z</time>
      </trkpt>
      <trkpt lat="41.73713" lon="9.30508">
        <ele>410</ele>
        <time>2024-02-20T14:51:16Z</time>
      </trkpt>
      <trkpt lat="41.73713" lon="9.30504">
        <ele>410</ele>
        <time>2024-02-20T14:51:20Z</time>
      </trkpt>
      <trkpt lat="41.73713" lon="9.30499">
        <ele>405</ele>
        <time>2024-02-20T14:51:29Z</time>
      </trkpt>
      <trkpt lat="41.73714" lon="9.30495">
        <ele>405</ele>
        <time>2024-02-20T14:51:32Z</time>
      </trkpt>
      <trkpt lat="41.73714" lon="9.30491">
        <ele>404</ele>
        <time>2024-02-20T14:51:36Z</time>
      </trkpt>
      <trkpt lat="41.73712" lon="9.30492">
        <ele>404</ele>
        <time>2024-02-20T14:53:16Z</time>
      </trkpt>
      <trkpt lat="41.7371" lon="9.3049">
        <ele>404</ele>
        <time>2024-02-20T14:53:42Z</time>
      </trkpt>
      <trkpt lat="41.73711" lon="9.30485">
        <ele>404</ele>
        <time>2024-02-20T14:53:52Z</time>
      </trkpt>
      <trkpt lat="41.73711" lon="9.30481">
        <ele>404</ele>
        <time>2024-02-20T14:53:56Z</time>
      </trkpt>
      <trkpt lat="41.73716" lon="9.30463">
        <ele>404</ele>
        <time>2024-02-20T14:54:26Z</time>
      </trkpt>
      <trkpt lat="41.73716" lon="9.30457">
        <ele>404</ele>
        <time>2024-02-20T14:54:36Z</time>
      </trkpt>
      <trkpt lat="41.73711" lon="9.30453">
        <ele>404</ele>
        <time>2024-02-20T14:56:11Z</time>
      </trkpt>
      <trkpt lat="41.73713" lon="9.30444">
        <ele>404</ele>
        <time>2024-02-20T14:57:12Z</time>
      </trkpt>
      <trkpt lat="41.73719" lon="9.30436">
        <ele>404</ele>
        <time>2024-02-20T14:57:31Z</time>
      </trkpt>
      <trkpt lat="41.73724" lon="9.30425">
        <ele>405</ele>
        <time>2024-02-20T14:58:09Z</time>
      </trkpt>
      <trkpt lat="41.73731" lon="9.30417">
        <ele>405</ele>
        <time>2024-02-20T14:58:44Z</time>
      </trkpt>
      <trkpt lat="41.7375" lon="9.30411">
        <ele>405</ele>
        <time>2024-02-20T14:59:41Z</time>
      </trkpt>
      <trkpt lat="41.73756" lon="9.30399">
        <ele>405</ele>
        <time>2024-02-20T14:59:58Z</time>
      </trkpt>
      <trkpt lat="41.73765" lon="9.30389">
        <ele>405</ele>
        <time>2024-02-20T15:00:22Z</time>
      </trkpt>
      <trkpt lat="41.73767" lon="9.30379">
        <ele>405</ele>
        <time>2024-02-20T15:01:04Z</time>
      </trkpt>
      <trkpt lat="41.73769" lon="9.30365">
        <ele>406</ele>
        <time>2024-02-20T15:02:07Z</time>
      </trkpt>
      <trkpt lat="41.73771" lon="9.30354">
        <ele>405</ele>
        <time>2024-02-20T15:03:54Z</time>
      </trkpt>
      <trkpt lat="41.73778" lon="9.30335">
        <ele>405</ele>
        <time>2024-02-20T15:04:42Z</time>
      </trkpt>
      <trkpt lat="41.73786" lon="9.3035">
        <ele>405</ele>
        <time>2024-02-20T15:05:05Z</time>
      </trkpt>
      <trkpt lat="41.73789" lon="9.30336">
        <ele>404</ele>
        <time>2024-02-20T15:05:29Z</time>
      </trkpt>
      <trkpt lat="41.73795" lon="9.30343">
        <ele>404</ele>
        <time>2024-02-20T15:05:53Z</time>
      </trkpt>
      <trkpt lat="41.73799" lon="9.30335">
        <ele>403</ele>
        <time>2024-02-20T15:06:32Z</time>
      </trkpt>
      <trkpt lat="41.73807" lon="9.30334">
        <ele>403</ele>
        <time>2024-02-20T15:07:28Z</time>
      </trkpt>
      <trkpt lat="41.73815" lon="9.30325">
        <ele>403</ele>
        <time>2024-02-20T15:07:37Z</time>
      </trkpt>
      <trkpt lat="41.73818" lon="9.30314">
        <ele>402</ele>
        <time>2024-02-20T15:08:04Z</time>
      </trkpt>
      <trkpt lat="41.73826" lon="9.3031">
        <ele>402</ele>
        <time>2024-02-20T15:08:14Z</time>
      </trkpt>
      <trkpt lat="41.73832" lon="9.30305">
        <ele>402</ele>
        <time>2024-02-20T15:08:24Z</time>
      </trkpt>
      <trkpt lat="41.73835" lon="9.30298">
        <ele>401</ele>
        <time>2024-02-20T15:08:41Z</time>
      </trkpt>
      <trkpt lat="41.73836" lon="9.30291">
        <ele>401</ele>
        <time>2024-02-20T15:08:48Z</time>
      </trkpt>
      <trkpt lat="41.73842" lon="9.30284">
        <ele>401</ele>
        <time>2024-02-20T15:08:56Z</time>
      </trkpt>
      <trkpt lat="41.73847" lon="9.30276">
        <ele>400</ele>
        <time>2024-02-20T15:09:05Z</time>
      </trkpt>
      <trkpt lat="41.73848" lon="9.30266">
        <ele>400</ele>
        <time>2024-02-20T15:09:11Z</time>
      </trkpt>
      <trkpt lat="41.73844" lon="9.3026">
        <ele>399</ele>
        <time>2024-02-20T15:09:34Z</time>
      </trkpt>
      <trkpt lat="41.73851" lon="9.30254">
        <ele>399</ele>
        <time>2024-02-20T15:10:07Z</time>
      </trkpt>
      <trkpt lat="41.73844" lon="9.30251">
        <ele>398</ele>
        <time>2024-02-20T15:10:39Z</time>
      </trkpt>
      <trkpt lat="41.73838" lon="9.30238">
        <ele>396</ele>
        <time>2024-02-20T15:10:55Z</time>
      </trkpt>
      <trkpt lat="41.73833" lon="9.30231">
        <ele>395</ele>
        <time>2024-02-20T15:11:17Z</time>
      </trkpt>
      <trkpt lat="41.73834" lon="9.30223">
        <ele>394</ele>
        <time>2024-02-20T15:11:38Z</time>
      </trkpt>
      <trkpt lat="41.73839" lon="9.30218">
        <ele>393</ele>
        <time>2024-02-20T15:11:45Z</time>
      </trkpt>
      <trkpt lat="41.73846" lon="9.30212">
        <ele>393</ele>
        <time>2024-02-20T15:11:54Z</time>
      </trkpt>
      <trkpt lat="41.73847" lon="9.30202">
        <ele>392</ele>
        <time>2024-02-20T15:12:18Z</time>
      </trkpt>
      <trkpt lat="41.73843" lon="9.30195">
        <ele>389</ele>
        <time>2024-02-20T15:13:41Z</time>
      </trkpt>
      <trkpt lat="41.73846" lon="9.30185">
        <ele>389</ele>
        <time>2024-02-20T15:13:58Z</time>
      </trkpt>
      <trkpt lat="41.73853" lon="9.30182">
        <ele>388</ele>
        <time>2024-02-20T15:14:21Z</time>
      </trkpt>
      <trkpt lat="41.73848" lon="9.30174">
        <ele>385</ele>
        <time>2024-02-20T15:14:43Z</time>
      </trkpt>
      <trkpt lat="41.73848" lon="9.30164">
        <ele>385</ele>
        <time>2024-02-20T15:14:47Z</time>
      </trkpt>
      <trkpt lat="41.73849" lon="9.30147">
        <ele>384</ele>
        <time>2024-02-20T15:14:54Z</time>
      </trkpt>
      <trkpt lat="41.7385" lon="9.30142">
        <ele>383</ele>
        <time>2024-02-20T15:15:10Z</time>
      </trkpt>
      <trkpt lat="41.73851" lon="9.30137">
        <ele>382</ele>
        <time>2024-02-20T15:15:15Z</time>
      </trkpt>
      <trkpt lat="41.7385" lon="9.30131">
        <ele>381</ele>
        <time>2024-02-20T15:15:21Z</time>
      </trkpt>
      <trkpt lat="41.73853" lon="9.30127">
        <ele>380</ele>
        <time>2024-02-20T15:15:25Z</time>
      </trkpt>
      <trkpt lat="41.73853" lon="9.30122">
        <ele>378</ele>
        <time>2024-02-20T15:15:32Z</time>
      </trkpt>
      <trkpt lat="41.73855" lon="9.30116">
        <ele>377</ele>
        <time>2024-02-20T15:15:39Z</time>
      </trkpt>
      <trkpt lat="41.73855" lon="9.30112">
        <ele>375</ele>
        <time>2024-02-20T15:15:45Z</time>
      </trkpt>
      <trkpt lat="41.73858" lon="9.30109">
        <ele>374</ele>
        <time>2024-02-20T15:15:59Z</time>
      </trkpt>
      <trkpt lat="41.73864" lon="9.30102">
        <ele>370</ele>
        <time>2024-02-20T15:16:10Z</time>
      </trkpt>
      <trkpt lat="41.73866" lon="9.30099">
        <ele>368</ele>
        <time>2024-02-20T15:16:17Z</time>
      </trkpt>
      <trkpt lat="41.73868" lon="9.30096">
        <ele>368</ele>
        <time>2024-02-20T15:16:23Z</time>
      </trkpt>
      <trkpt lat="41.7387" lon="9.30094">
        <ele>341</ele>
        <time>2024-02-20T15:35:16Z</time>
      </trkpt>
      <trkpt lat="41.73876" lon="9.30092">
        <ele>340</ele>
        <time>2024-02-20T15:36:06Z</time>
      </trkpt>
      <trkpt lat="41.7388" lon="9.30087">
        <ele>340</ele>
        <time>2024-02-20T15:36:14Z</time>
      </trkpt>
      <trkpt lat="41.7388" lon="9.30078">
        <ele>340</ele>
        <time>2024-02-20T15:36:22Z</time>
      </trkpt>
      <trkpt lat="41.73885" lon="9.30075">
        <ele>340</ele>
        <time>2024-02-20T15:36:34Z</time>
      </trkpt>
      <trkpt lat="41.73884" lon="9.30067">
        <ele>340</ele>
        <time>2024-02-20T15:36:49Z</time>
      </trkpt>
      <trkpt lat="41.73891" lon="9.30051">
        <ele>339</ele>
        <time>2024-02-20T15:37:13Z</time>
      </trkpt>
      <trkpt lat="41.73892" lon="9.30043">
        <ele>339</ele>
        <time>2024-02-20T15:37:29Z</time>
      </trkpt>
      <trkpt lat="41.73892" lon="9.30036">
        <ele>339</ele>
        <time>2024-02-20T15:37:41Z</time>
      </trkpt>
      <trkpt lat="41.73895" lon="9.30029">
        <ele>338</ele>
        <time>2024-02-20T15:37:58Z</time>
      </trkpt>
      <trkpt lat="41.73887" lon="9.30027">
        <ele>338</ele>
        <time>2024-02-20T15:38:27Z</time>
      </trkpt>
      <trkpt lat="41.73887" lon="9.3002">
        <ele>337</ele>
        <time>2024-02-20T15:39:16Z</time>
      </trkpt>
      <trkpt lat="41.73888" lon="9.3001">
        <ele>337</ele>
        <time>2024-02-20T15:39:32Z</time>
      </trkpt>
      <trkpt lat="41.73892" lon="9.30001">
        <ele>337</ele>
        <time>2024-02-20T15:39:48Z</time>
      </trkpt>
      <trkpt lat="41.73892" lon="9.2999">
        <ele>336</ele>
        <time>2024-02-20T15:40:01Z</time>
      </trkpt>
      <trkpt lat="41.73894" lon="9.2998">
        <ele>336</ele>
        <time>2024-02-20T15:40:26Z</time>
      </trkpt>
      <trkpt lat="41.73899" lon="9.29972">
        <ele>335</ele>
        <time>2024-02-20T15:41:07Z</time>
      </trkpt>
      <trkpt lat="41.73907" lon="9.29954">
        <ele>335</ele>
        <time>2024-02-20T15:41:19Z</time>
      </trkpt>
      <trkpt lat="41.73912" lon="9.29955">
        <ele>335</ele>
        <time>2024-02-20T15:41:34Z</time>
      </trkpt>
      <trkpt lat="41.73917" lon="9.29947">
        <ele>334</ele>
        <time>2024-02-20T15:41:50Z</time>
      </trkpt>
      <trkpt lat="41.73921" lon="9.2994">
        <ele>333</ele>
        <time>2024-02-20T15:42:56Z</time>
      </trkpt>
      <trkpt lat="41.73918" lon="9.29933">
        <ele>332</ele>
        <time>2024-02-20T15:43:13Z</time>
      </trkpt>
      <trkpt lat="41.7392" lon="9.29923">
        <ele>330</ele>
        <time>2024-02-20T15:43:43Z</time>
      </trkpt>
      <trkpt lat="41.73926" lon="9.29922">
        <ele>329</ele>
        <time>2024-02-20T15:44:17Z</time>
      </trkpt>
      <trkpt lat="41.73928" lon="9.29914">
        <ele>328</ele>
        <time>2024-02-20T15:44:42Z</time>
      </trkpt>
      <trkpt lat="41.73931" lon="9.29908">
        <ele>327</ele>
        <time>2024-02-20T15:44:56Z</time>
      </trkpt>
      <trkpt lat="41.73936" lon="9.299">
        <ele>327</ele>
        <time>2024-02-20T15:45:07Z</time>
      </trkpt>
      <trkpt lat="41.73938" lon="9.29893">
        <ele>326</ele>
        <time>2024-02-20T15:45:13Z</time>
      </trkpt>
      <trkpt lat="41.73946" lon="9.29889">
        <ele>326</ele>
        <time>2024-02-20T15:45:23Z</time>
      </trkpt>
      <trkpt lat="41.73948" lon="9.29879">
        <ele>325</ele>
        <time>2024-02-20T15:45:31Z</time>
      </trkpt>
      <trkpt lat="41.73953" lon="9.29874">
        <ele>325</ele>
        <time>2024-02-20T15:45:55Z</time>
      </trkpt>
      <trkpt lat="41.73957" lon="9.29869">
        <ele>324</ele>
        <time>2024-02-20T15:46:19Z</time>
      </trkpt>
      <trkpt lat="41.73959" lon="9.29862">
        <ele>323</ele>
        <time>2024-02-20T15:46:54Z</time>
      </trkpt>
      <trkpt lat="41.73961" lon="9.29855">
        <ele>321</ele>
        <time>2024-02-20T15:47:06Z</time>
      </trkpt>
      <trkpt lat="41.73964" lon="9.29847">
        <ele>320</ele>
        <time>2024-02-20T15:47:16Z</time>
      </trkpt>
      <trkpt lat="41.73972" lon="9.29833">
        <ele>319</ele>
        <time>2024-02-20T15:47:34Z</time>
      </trkpt>
      <trkpt lat="41.73977" lon="9.29838">
        <ele>318</ele>
        <time>2024-02-20T15:47:44Z</time>
      </trkpt>
      <trkpt lat="41.73982" lon="9.29833">
        <ele>315</ele>
        <time>2024-02-20T15:49:00Z</time>
      </trkpt>
      <trkpt lat="41.73989" lon="9.2983">
        <ele>311</ele>
        <time>2024-02-20T15:49:12Z</time>
      </trkpt>
      <trkpt lat="41.73989" lon="9.2982">
        <ele>311</ele>
        <time>2024-02-20T15:49:27Z</time>
      </trkpt>
      <trkpt lat="41.73987" lon="9.29813">
        <ele>310</ele>
        <time>2024-02-20T15:49:39Z</time>
      </trkpt>
      <trkpt lat="41.73984" lon="9.29806">
        <ele>309</ele>
        <time>2024-02-20T15:49:49Z</time>
      </trkpt>
      <trkpt lat="41.73984" lon="9.29799">
        <ele>308</ele>
        <time>2024-02-20T15:50:06Z</time>
      </trkpt>
      <trkpt lat="41.73987" lon="9.29792">
        <ele>308</ele>
        <time>2024-02-20T15:50:28Z</time>
      </trkpt>
      <trkpt lat="41.73989" lon="9.29785">
        <ele>306</ele>
        <time>2024-02-20T15:50:33Z</time>
      </trkpt>
      <trkpt lat="41.73987" lon="9.29778">
        <ele>306</ele>
        <time>2024-02-20T15:50:41Z</time>
      </trkpt>
      <trkpt lat="41.73989" lon="9.29771">
        <ele>305</ele>
        <time>2024-02-20T15:51:10Z</time>
      </trkpt>
      <trkpt lat="41.73987" lon="9.29764">
        <ele>303</ele>
        <time>2024-02-20T15:51:42Z</time>
      </trkpt>
      <trkpt lat="41.73987" lon="9.29753">
        <ele>300</ele>
        <time>2024-02-20T15:51:50Z</time>
      </trkpt>
      <trkpt lat="41.73993" lon="9.29748">
        <ele>299</ele>
        <time>2024-02-20T15:52:03Z</time>
      </trkpt>
      <trkpt lat="41.74001" lon="9.29746">
        <ele>296</ele>
        <time>2024-02-20T15:52:23Z</time>
      </trkpt>
      <trkpt lat="41.74005" lon="9.29737">
        <ele>296</ele>
        <time>2024-02-20T15:52:40Z</time>
      </trkpt>
      <trkpt lat="41.74011" lon="9.29734">
        <ele>293</ele>
        <time>2024-02-20T15:53:36Z</time>
      </trkpt>
      <trkpt lat="41.74016" lon="9.29727">
        <ele>293</ele>
        <time>2024-02-20T15:53:44Z</time>
      </trkpt>
      <trkpt lat="41.74023" lon="9.29732">
        <ele>291</ele>
        <time>2024-02-20T15:54:02Z</time>
      </trkpt>
      <trkpt lat="41.7403" lon="9.2974">
        <ele>290</ele>
        <time>2024-02-20T15:54:09Z</time>
      </trkpt>
      <trkpt lat="41.74034" lon="9.29745">
        <ele>289</ele>
        <time>2024-02-20T15:54:42Z</time>
      </trkpt>
      <trkpt lat="41.7404" lon="9.29746">
        <ele>289</ele>
        <time>2024-02-20T15:54:52Z</time>
      </trkpt>
      <trkpt lat="41.74049" lon="9.29755">
        <ele>286</ele>
        <time>2024-02-20T15:55:20Z</time>
      </trkpt>
      <trkpt lat="41.74053" lon="9.2976">
        <ele>285</ele>
        <time>2024-02-20T15:55:37Z</time>
      </trkpt>
      <trkpt lat="41.7406" lon="9.29764">
        <ele>284</ele>
        <time>2024-02-20T15:55:56Z</time>
      </trkpt>
      <trkpt lat="41.74062" lon="9.29771">
        <ele>283</ele>
        <time>2024-02-20T15:56:04Z</time>
      </trkpt>
      <trkpt lat="41.74064" lon="9.29778">
        <ele>282</ele>
        <time>2024-02-20T15:56:23Z</time>
      </trkpt>
      <trkpt lat="41.74066" lon="9.29782">
        <ele>210.2</ele>
        <time>2024-02-20T15:56:37Z</time>
      </trkpt>
      <trkpt lat="41.74069" lon="9.29777">
        <ele>209.3</ele>
        <time>2024-02-20T15:58:41Z</time>
      </trkpt>
      <trkpt lat="41.74069" lon="9.29766">
        <ele>208.1</ele>
        <time>2024-02-20T15:58:47Z</time>
      </trkpt>
      <trkpt lat="41.74072" lon="9.29751">
        <ele>206</ele>
      </trkpt>
      <trkpt lat="41.74076" lon="9.29739">
        <ele>204.1</ele>
        <time>2024-02-20T15:58:58Z</time>
      </trkpt>
      <trkpt lat="41.74079" lon="9.29729">
        <ele>201.8</ele>
      </trkpt>
      <trkpt lat="41.74083" lon="9.29718">
        <ele>198.8</ele>
        <time>2024-02-20T15:59:11Z</time>
      </trkpt>
    </trkseg>
  </trk>
</gpx>